Las horas y fechas están en horario UTC
Sumar 1 hora en el horario de Invierno y 2 horas en el de Verano

Informes METAR cercanos

 

LEZL - Sevilla (civ/Mil, Spain
Distance from station: NNE 24km
Actualización: 19/09/2020 19:30
Few Clouds
Few Clouds
 Viento del SO
Viento: SO 20 km/h
Temperatura: 25°C
Rocío: 16°C
Humedad: 57%
Barómetro: 1017 hPa
Clouds: Few Clouds
Visibility: 10 km
Cloud details: Few Clouds 1219 m
2020/09/19 17:30 LEZL 191730Z 22011KT 190V250 9999 FEW040 25/16 Q1017 NOSIG
LEMO - Moron (sp-Usafb), Spain
Distance from station: E 38km
Actualización: 19/09/2020 19:30
Few Clouds
Few Clouds
 Viento del OSO
Viento: OSO 17 km/h
Temperatura: 24°C
Rocío: 16°C
Humedad: 61%
Barómetro: 1017 hPa
Clouds: Few Clouds
Visibility: 10 km
Cloud details: Few Clouds 1067 m
2020/09/19 17:30 LEMO 191730Z 25009KT 9999 FEW035 24/16 Q1017 NOSIG
LEJR - Jerez (civ/Mil), Spain
Distance from station: S 53km
Actualización: 19/09/2020 19:30
Few Clouds
Few Clouds
 Viento del OSO
Viento: OSO 15 km/h
Temperatura: 24°C
Rocío: 16°C
Humedad: 61%
Barómetro: 1018 hPa
Clouds: Few Clouds
Visibility: 10 km
Cloud details: Few Clouds 914 m
2020/09/19 17:30 LEJR 191730Z 24008KT 9999 FEW030 24/16 Q1018
 
LERT - Rota Naval Stati, Spain
Distance from station: SSO 71km
Actualización: 19/09/2020 19:30
Few Clouds
Few Clouds
 Viento del OSO
Viento: OSO 20 km/h
Temperatura: 23°C
Rocío: 19°C
Humedad: 78%
Barómetro: 1018 hPa
Clouds: Few Clouds
Visibility: 10 km
Cloud details: Few Clouds 396 m
2020/09/19 17:30 LERT 191730Z 24011KT 9999 FEW013 23/19 Q1018 NOSIG
LEBA - Cordoba Airport, Spain
Distance from station: ENE 128km
Actualización: 19/09/2020 19:30
Few Clouds
Few Clouds
 Viento del SO
Viento: SO 11 km/h
Temperatura: 23°C
Rocío: 17°C
Humedad: 69%
Barómetro: 1017 hPa
Clouds: Few Clouds
Visibility: 10 km
Cloud details: Few Clouds 914 m
2020/09/19 17:30 LEBA 191730Z 23006KT 200V270 9999 FEW030 23/17 Q1017
LXGB - Gibraltar (civ/M, Gibraltar
Distance from station: SSE 137km
Actualización: 19/09/2020 19:20
Few Clouds
Few Clouds
 Viento del O
Viento: O 24 km/h
Temperatura: 24°C
Rocío: 19°C
Humedad: 74%
Barómetro: 1017 hPa
Clouds: Few Clouds
Visibility: 10 km
Cloud details: Few Clouds 1067 m
2020/09/19 17:20 LXGB 191720Z 27013KT 9999 FEW035 24/19 Q1017 NOSIG RMK BLU BLU
 
LEMG - Malaga (civ/Mil), Spain
Distance from station: ESE 150km
Actualización: 19/09/2020 19:30
Few Clouds
Few Clouds
 Viento del NO
Viento: NO 7 km/h
Temperatura: 27°C
Heat Index: 28°C
Rocío: 17°C
Humedad: 54%
Barómetro: 1016 hPa
Clouds: Few Clouds
Visibility: 10 km
Cloud details: Few Clouds 1311 m
2020/09/19 17:30 LEMG 191730Z 31004KT 260V360 9999 FEW043 27/17 Q1016 NOSIG
GMTT - Tangier/Boukhalf, Morocco
Distance from station: S 169km
Actualización: 19/09/2020 19:30
Few Clouds
Few Clouds
 Viento del O
Viento: O 17 km/h
Temperatura: 23°C
Rocío: 18°C
Humedad: 74%
Barómetro: 1018 hPa
Clouds: Few Clouds
Visibility: 10 km
Cloud details: Few Clouds 305 m
2020/09/19 17:30 GMTT 191730Z 26009KT 9999 FEW010 23/18 Q1018 NOSIG
LPFR - Faro, Portugal
Distance from station: O 172km
Actualización: 19/09/2020 19:30
Few Clouds
Few Clouds
 Viento del OSO
Viento: OSO 26 km/h
Temperatura: 22°C
Rocío: 18°C
Humedad: 78%
Barómetro: 1018 hPa
Clouds: Few Clouds
Visibility: 10 km
Cloud details: Few Clouds 549 m
2020/09/19 17:30 LPFR 191730Z 24014KT 9999 FEW018 22/18 Q1018
 
LPBJ - Beja (por/Ger-Af, Portugal
Distance from station: ONO 192km
Actualización: 19/09/2020 19:00
Few Clouds
Few Clouds
 Viento del O
Viento: O 20 km/h
Temperatura: 24°C
Rocío: 14°C
Humedad: 54%
Barómetro: 1018 hPa
Clouds: Few Clouds
Visibility: 10 km
Cloud details: Few Clouds 1219 m
2020/09/19 17:00 LPBJ 191700Z 27011KT 9999 FEW040 24/14 Q1018
LEBZ - Talavera Ab/Bada, Spain
Distance from station: NNO 194km
Actualización: 19/09/2020 19:30
Despejado
Despejado
 Viento del OSO
Viento: OSO 19 km/h
Temperatura: 26°C
Rocío: 14°C
Humedad: 48%
Barómetro: 1016 hPa
Resumen: Despejado
Visibility: greater than 10 km
2020/09/19 17:30 LEBZ 191730Z 24010KT 200V280 CAVOK 26/14 Q1016
LEMD - Madrid/Barajas, Spain
Distance from station: NE 415km
Actualización: 19/09/2020 19:30
Muy nuboso
Muy nuboso
 Viento del OSO
Viento: OSO 22 km/h
Temperatura: 19°C
Rocío: 13°C
Humedad: 68%
Barómetro: 1017 hPa
Clouds: Muy nuboso
Visibility: 10 km
Cloud details: Few Clouds 1829 m
Muy nuboso 2286 m
2020/09/19 17:30 LEMD 191730Z 24012KT 9999 FEW060 BKN075 19/13 Q1017 NOSIG